sensor_id;sensor_type;location;lat;lon;timestamp;P1;durP1;ratioP1;P2;durP2;ratioP2
65092;SDS011;52025;50.288;2.794;2022-09-03T00:10:31;5.68;;;3.45;;
65092;SDS011;52025;50.288;2.794;2022-09-03T00:13:00;5.82;;;3.97;;
65092;SDS011;52025;50.288;2.794;2022-09-03T00:15:28;6.40;;;3.72;;
65092;SDS011;52025;50.288;2.794;2022-09-03T00:20:23;5.28;;;3.35;;
65092;SDS011;52025;50.288;2.794;2022-09-03T00:22:52;5.97;;;3.90;;
65092;SDS011;52025;50.288;2.794;2022-09-03T00:25:28;5.90;;;3.85;;
65092;SDS011;52025;50.288;2.794;2022-09-03T00:28:01;8.57;;;5.43;;
65092;SDS011;52025;50.288;2.794;2022-09-03T00:30:33;5.65;;;3.67;;
65092;SDS011;52025;50.288;2.794;2022-09-03T00:33:03;6.97;;;3.35;;
65092;SDS011;52025;50.288;2.794;2022-09-03T00:35:32;7.22;;;3.50;;
65092;SDS011;52025;50.288;2.794;2022-09-03T00:38:14;9.27;;;3.87;;
65092;SDS011;52025;50.288;2.794;2022-09-03T00:51:34;6.43;;;4.07;;
65092;SDS011;52025;50.288;2.794;2022-09-03T00:56:34;8.88;;;3.88;;
65092;SDS011;52025;50.288;2.794;2022-09-03T01:04:38;7.53;;;3.78;;
65092;SDS011;52025;50.288;2.794;2022-09-03T01:07:12;5.93;;;3.40;;
65092;SDS011;52025;50.288;2.794;2022-09-03T01:14:46;5.60;;;3.72;;
65092;SDS011;52025;50.288;2.794;2022-09-03T01:19:46;6.00;;;3.47;;
65092;SDS011;52025;50.288;2.794;2022-09-03T01:24:47;7.45;;;4.45;;
65092;SDS011;52025;50.288;2.794;2022-09-03T01:40:13;8.48;;;3.95;;
65092;SDS011;52025;50.288;2.794;2022-09-03T01:45:34;6.07;;;3.72;;
65092;SDS011;52025;50.288;2.794;2022-09-03T01:50:45;6.07;;;4.07;;
65092;SDS011;52025;50.288;2.794;2022-09-03T01:53:17;9.57;;;4.28;;
65092;SDS011;52025;50.288;2.794;2022-09-03T01:55:59;10.40;;;4.38;;
65092;SDS011;52025;50.288;2.794;2022-09-03T01:58:35;6.43;;;4.15;;
65092;SDS011;52025;50.288;2.794;2022-09-03T02:01:06;6.45;;;4.40;;
65092;SDS011;52025;50.288;2.794;2022-09-03T02:03:35;8.05;;;4.68;;
65092;SDS011;52025;50.288;2.794;2022-09-03T02:06:01;7.63;;;4.43;;
65092;SDS011;52025;50.288;2.794;2022-09-03T02:08:27;7.07;;;4.30;;
65092;SDS011;52025;50.288;2.794;2022-09-03T02:10:54;6.55;;;4.28;;
65092;SDS011;52025;50.288;2.794;2022-09-03T02:13:27;8.25;;;4.45;;
65092;SDS011;52025;50.288;2.794;2022-09-03T02:15:55;7.30;;;4.45;;
65092;SDS011;52025;50.288;2.794;2022-09-03T02:18:22;7.50;;;4.28;;
65092;SDS011;52025;50.288;2.794;2022-09-03T02:20:48;8.27;;;4.43;;
65092;SDS011;52025;50.288;2.794;2022-09-03T02:23:14;7.60;;;4.72;;
65092;SDS011;52025;50.288;2.794;2022-09-03T02:25:49;7.05;;;4.30;;
65092;SDS011;52025;50.288;2.794;2022-09-03T02:28:16;7.70;;;5.05;;
65092;SDS011;52025;50.288;2.794;2022-09-03T02:30:44;9.27;;;4.90;;
65092;SDS011;52025;50.288;2.794;2022-09-03T02:33:13;6.78;;;4.32;;
65092;SDS011;52025;50.288;2.794;2022-09-03T02:35:39;8.75;;;4.90;;
65092;SDS011;52025;50.288;2.794;2022-09-03T02:40:52;7.07;;;4.40;;
65092;SDS011;52025;50.288;2.794;2022-09-03T02:43:30;7.03;;;3.97;;
65092;SDS011;52025;50.288;2.794;2022-09-03T02:45:58;6.60;;;4.40;;
65092;SDS011;52025;50.288;2.794;2022-09-03T02:48:25;7.30;;;4.22;;
65092;SDS011;52025;50.288;2.794;2022-09-03T02:50:51;8.27;;;4.47;;
65092;SDS011;52025;50.288;2.794;2022-09-03T02:53:16;8.18;;;4.50;;
65092;SDS011;52025;50.288;2.794;2022-09-03T02:55:42;8.13;;;4.75;;
65092;SDS011;52025;50.288;2.794;2022-09-03T02:58:08;6.82;;;4.72;;
65092;SDS011;52025;50.288;2.794;2022-09-03T03:00:34;7.53;;;4.13;;
65092;SDS011;52025;50.288;2.794;2022-09-03T03:03:00;10.80;;;4.60;;
65092;SDS011;52025;50.288;2.794;2022-09-03T03:05:29;6.82;;;4.43;;
65092;SDS011;52025;50.288;2.794;2022-09-03T03:07:56;6.82;;;4.63;;
65092;SDS011;52025;50.288;2.794;2022-09-03T03:10:22;6.28;;;4.38;;
65092;SDS011;52025;50.288;2.794;2022-09-03T03:12:47;6.95;;;4.85;;
65092;SDS011;52025;50.288;2.794;2022-09-03T03:15:13;6.78;;;4.65;;
65092;SDS011;52025;50.288;2.794;2022-09-03T03:17:39;6.88;;;4.70;;
65092;SDS011;52025;50.288;2.794;2022-09-03T03:20:04;6.30;;;4.20;;
65092;SDS011;52025;50.288;2.794;2022-09-03T03:22:29;7.50;;;4.32;;
65092;SDS011;52025;50.288;2.794;2022-09-03T03:24:55;6.40;;;3.90;;
65092;SDS011;52025;50.288;2.794;2022-09-03T03:27:21;9.05;;;4.32;;
65092;SDS011;52025;50.288;2.794;2022-09-03T03:29:47;9.82;;;4.75;;
65092;SDS011;52025;50.288;2.794;2022-09-03T03:32:14;10.45;;;4.70;;
65092;SDS011;52025;50.288;2.794;2022-09-03T03:34:39;8.35;;;5.25;;
65092;SDS011;52025;50.288;2.794;2022-09-03T03:37:04;8.02;;;5.05;;
65092;SDS011;52025;50.288;2.794;2022-09-03T03:39:30;7.95;;;5.60;;
65092;SDS011;52025;50.288;2.794;2022-09-03T03:41:55;8.63;;;5.30;;
65092;SDS011;52025;50.288;2.794;2022-09-03T03:44:20;8.88;;;5.47;;
65092;SDS011;52025;50.288;2.794;2022-09-03T03:46:46;7.93;;;5.30;;
65092;SDS011;52025;50.288;2.794;2022-09-03T03:49:11;8.82;;;5.53;;
65092;SDS011;52025;50.288;2.794;2022-09-03T03:51:39;8.30;;;5.57;;
65092;SDS011;52025;50.288;2.794;2022-09-03T03:54:05;8.02;;;5.55;;
65092;SDS011;52025;50.288;2.794;2022-09-03T03:56:30;8.48;;;5.53;;
65092;SDS011;52025;50.288;2.794;2022-09-03T03:58:57;8.85;;;5.97;;
65092;SDS011;52025;50.288;2.794;2022-09-03T04:01:24;8.82;;;5.97;;
65092;SDS011;52025;50.288;2.794;2022-09-03T04:03:50;7.93;;;5.50;;
65092;SDS011;52025;50.288;2.794;2022-09-03T04:06:16;9.80;;;6.25;;
65092;SDS011;52025;50.288;2.794;2022-09-03T04:08:43;10.20;;;6.15;;
65092;SDS011;52025;50.288;2.794;2022-09-03T04:11:09;10.90;;;6.72;;
65092;SDS011;52025;50.288;2.794;2022-09-03T04:13:36;10.55;;;5.97;;
65092;SDS011;52025;50.288;2.794;2022-09-03T04:16:05;9.00;;;6.00;;
65092;SDS011;52025;50.288;2.794;2022-09-03T04:18:31;9.50;;;5.95;;
65092;SDS011;52025;50.288;2.794;2022-09-03T04:21:00;13.75;;;6.10;;
65092;SDS011;52025;50.288;2.794;2022-09-03T04:23:28;8.60;;;6.63;;
65092;SDS011;52025;50.288;2.794;2022-09-03T04:25:53;9.00;;;6.20;;
65092;SDS011;52025;50.288;2.794;2022-09-03T04:28:18;10.52;;;6.57;;
65092;SDS011;52025;50.288;2.794;2022-09-03T04:30:44;10.27;;;6.47;;
65092;SDS011;52025;50.288;2.794;2022-09-03T04:33:09;9.25;;;6.28;;
65092;SDS011;52025;50.288;2.794;2022-09-03T04:35:35;8.75;;;6.07;;
65092;SDS011;52025;50.288;2.794;2022-09-03T04:38:01;9.10;;;6.10;;
65092;SDS011;52025;50.288;2.794;2022-09-03T04:40:28;10.98;;;6.15;;
65092;SDS011;52025;50.288;2.794;2022-09-03T04:42:56;10.18;;;6.45;;
65092;SDS011;52025;50.288;2.794;2022-09-03T04:45:23;7.97;;;5.38;;
65092;SDS011;52025;50.288;2.794;2022-09-03T04:47:55;10.32;;;6.65;;
65092;SDS011;52025;50.288;2.794;2022-09-03T04:50:20;8.95;;;6.32;;
65092;SDS011;52025;50.288;2.794;2022-09-03T04:52:47;8.57;;;6.28;;
65092;SDS011;52025;50.288;2.794;2022-09-03T04:55:12;8.65;;;5.90;;
65092;SDS011;52025;50.288;2.794;2022-09-03T04:57:38;8.15;;;6.22;;
65092;SDS011;52025;50.288;2.794;2022-09-03T05:00:03;8.63;;;5.85;;
65092;SDS011;52025;50.288;2.794;2022-09-03T05:02:29;9.50;;;5.55;;
65092;SDS011;52025;50.288;2.794;2022-09-03T05:04:54;10.48;;;5.90;;
65092;SDS011;52025;50.288;2.794;2022-09-03T05:07:19;8.10;;;5.85;;
65092;SDS011;52025;50.288;2.794;2022-09-03T05:09:45;10.07;;;6.28;;
65092;SDS011;52025;50.288;2.794;2022-09-03T05:12:10;8.82;;;5.80;;
65092;SDS011;52025;50.288;2.794;2022-09-03T05:14:37;10.13;;;6.85;;
65092;SDS011;52025;50.288;2.794;2022-09-03T05:17:02;7.93;;;5.78;;
65092;SDS011;52025;50.288;2.794;2022-09-03T05:19:28;8.32;;;5.55;;
65092;SDS011;52025;50.288;2.794;2022-09-03T05:21:53;10.57;;;6.38;;
65092;SDS011;52025;50.288;2.794;2022-09-03T05:24:18;7.50;;;5.35;;
65092;SDS011;52025;50.288;2.794;2022-09-03T05:26:44;7.60;;;5.53;;
65092;SDS011;52025;50.288;2.794;2022-09-03T05:29:09;8.07;;;5.75;;
65092;SDS011;52025;50.288;2.794;2022-09-03T05:31:35;8.73;;;5.30;;
65092;SDS011;52025;50.288;2.794;2022-09-03T05:34:02;9.63;;;6.13;;
65092;SDS011;52025;50.288;2.794;2022-09-03T05:36:32;9.00;;;5.28;;
65092;SDS011;52025;50.288;2.794;2022-09-03T05:38:58;6.95;;;5.05;;
65092;SDS011;52025;50.288;2.794;2022-09-03T05:41:29;8.23;;;5.70;;
65092;SDS011;52025;50.288;2.794;2022-09-03T05:43:54;8.57;;;5.70;;
65092;SDS011;52025;50.288;2.794;2022-09-03T05:46:22;9.30;;;5.80;;
65092;SDS011;52025;50.288;2.794;2022-09-03T05:48:52;10.35;;;6.07;;
65092;SDS011;52025;50.288;2.794;2022-09-03T05:51:17;11.43;;;6.32;;
65092;SDS011;52025;50.288;2.794;2022-09-03T05:53:46;9.40;;;5.90;;
65092;SDS011;52025;50.288;2.794;2022-09-03T05:56:13;12.50;;;5.70;;
65092;SDS011;52025;50.288;2.794;2022-09-03T05:58:41;9.45;;;6.10;;
65092;SDS011;52025;50.288;2.794;2022-09-03T06:01:16;7.47;;;5.18;;
65092;SDS011;52025;50.288;2.794;2022-09-03T06:03:42;10.32;;;5.25;;
65092;SDS011;52025;50.288;2.794;2022-09-03T06:06:09;10.45;;;5.70;;
65092;SDS011;52025;50.288;2.794;2022-09-03T06:08:35;8.50;;;6.22;;
65092;SDS011;52025;50.288;2.794;2022-09-03T06:11:02;8.57;;;5.60;;
65092;SDS011;52025;50.288;2.794;2022-09-03T06:13:28;8.20;;;5.15;;
65092;SDS011;52025;50.288;2.794;2022-09-03T06:15:57;9.45;;;5.75;;
65092;SDS011;52025;50.288;2.794;2022-09-03T06:18:23;9.60;;;6.50;;
65092;SDS011;52025;50.288;2.794;2022-09-03T06:20:55;8.00;;;5.70;;
65092;SDS011;52025;50.288;2.794;2022-09-03T06:23:20;7.00;;;4.43;;
65092;SDS011;52025;50.288;2.794;2022-09-03T06:25:45;6.38;;;4.22;;
65092;SDS011;52025;50.288;2.794;2022-09-03T06:28:11;6.88;;;4.50;;
65092;SDS011;52025;50.288;2.794;2022-09-03T06:30:36;8.52;;;4.43;;
65092;SDS011;52025;50.288;2.794;2022-09-03T06:33:01;6.82;;;4.82;;
65092;SDS011;52025;50.288;2.794;2022-09-03T06:35:34;8.10;;;4.80;;
65092;SDS011;52025;50.288;2.794;2022-09-03T06:38:11;6.72;;;4.88;;
65092;SDS011;52025;50.288;2.794;2022-09-03T06:43:11;7.75;;;5.15;;
65092;SDS011;52025;50.288;2.794;2022-09-03T06:45:37;8.45;;;4.75;;
65092;SDS011;52025;50.288;2.794;2022-09-03T06:48:02;8.02;;;4.90;;
65092;SDS011;52025;50.288;2.794;2022-09-03T06:50:27;6.55;;;4.28;;
65092;SDS011;52025;50.288;2.794;2022-09-03T06:52:53;8.60;;;4.63;;
65092;SDS011;52025;50.288;2.794;2022-09-03T06:55:21;7.85;;;4.70;;
65092;SDS011;52025;50.288;2.794;2022-09-03T06:57:47;7.82;;;4.28;;
65092;SDS011;52025;50.288;2.794;2022-09-03T07:00:12;6.70;;;4.50;;
65092;SDS011;52025;50.288;2.794;2022-09-03T07:02:38;7.93;;;4.57;;
65092;SDS011;52025;50.288;2.794;2022-09-03T07:05:05;6.13;;;4.03;;
65092;SDS011;52025;50.288;2.794;2022-09-03T07:07:30;8.15;;;4.72;;
65092;SDS011;52025;50.288;2.794;2022-09-03T07:09:58;9.07;;;4.72;;
65092;SDS011;52025;50.288;2.794;2022-09-03T07:12:23;7.03;;;4.68;;
65092;SDS011;52025;50.288;2.794;2022-09-03T07:14:48;6.88;;;4.35;;
65092;SDS011;52025;50.288;2.794;2022-09-03T07:17:14;8.77;;;5.10;;
65092;SDS011;52025;50.288;2.794;2022-09-03T07:19:42;7.32;;;4.95;;
65092;SDS011;52025;50.288;2.794;2022-09-03T07:22:15;8.30;;;4.60;;
65092;SDS011;52025;50.288;2.794;2022-09-03T07:24:43;7.93;;;5.47;;
65092;SDS011;52025;50.288;2.794;2022-09-03T07:47:21;8.38;;;4.90;;
65092;SDS011;52025;50.288;2.794;2022-09-03T07:49:46;8.05;;;5.25;;
65092;SDS011;52025;50.288;2.794;2022-09-03T07:52:12;7.70;;;5.10;;
65092;SDS011;52025;50.288;2.794;2022-09-03T07:54:37;8.73;;;6.10;;
65092;SDS011;52025;50.288;2.794;2022-09-03T07:57:02;8.60;;;5.70;;
65092;SDS011;52025;50.288;2.794;2022-09-03T08:02:47;11.07;;;6.05;;
65092;SDS011;52025;50.288;2.794;2022-09-03T08:05:12;9.98;;;5.97;;
65092;SDS011;52025;50.288;2.794;2022-09-03T08:07:59;8.10;;;5.50;;
65092;SDS011;52025;50.288;2.794;2022-09-03T08:10:29;8.88;;;5.60;;
65092;SDS011;52025;50.288;2.794;2022-09-03T08:25:50;10.13;;;5.32;;
65092;SDS011;52025;50.288;2.794;2022-09-03T08:28:47;9.52;;;5.85;;
65092;SDS011;52025;50.288;2.794;2022-09-03T08:44:52;8.07;;;5.03;;
65092;SDS011;52025;50.288;2.794;2022-09-03T08:49:53;7.50;;;5.23;;
65092;SDS011;52025;50.288;2.794;2022-09-03T08:52:23;11.10;;;6.22;;
65092;SDS011;52025;50.288;2.794;2022-09-03T08:58:02;10.27;;;5.40;;
65092;SDS011;52025;50.288;2.794;2022-09-03T09:00:32;7.25;;;5.32;;
65092;SDS011;52025;50.288;2.794;2022-09-03T09:03:17;8.70;;;5.05;;
65092;SDS011;52025;50.288;2.794;2022-09-03T09:05:58;7.43;;;5.03;;
65092;SDS011;52025;50.288;2.794;2022-09-03T09:10:56;7.85;;;4.78;;
65092;SDS011;52025;50.288;2.794;2022-09-03T09:25:26;9.43;;;5.03;;
65092;SDS011;52025;50.288;2.794;2022-09-03T10:00:07;8.10;;;4.65;;
65092;SDS011;52025;50.288;2.794;2022-09-03T10:11:30;7.10;;;4.53;;
65092;SDS011;52025;50.288;2.794;2022-09-03T10:53:46;4.50;;;2.55;;
65092;SDS011;52025;50.288;2.794;2022-09-03T11:47:19;5.97;;;2.60;;
65092;SDS011;52025;50.288;2.794;2022-09-03T11:49:46;4.93;;;2.55;;
65092;SDS011;52025;50.288;2.794;2022-09-03T11:52:23;6.18;;;2.72;;
65092;SDS011;52025;50.288;2.794;2022-09-03T11:54:52;5.00;;;2.35;;
65092;SDS011;52025;50.288;2.794;2022-09-03T11:57:22;3.80;;;2.25;;
65092;SDS011;52025;50.288;2.794;2022-09-03T11:59:49;3.25;;;1.80;;
65092;SDS011;52025;50.288;2.794;2022-09-03T12:02:31;3.28;;;1.80;;
65092;SDS011;52025;50.288;2.794;2022-09-03T12:18:21;3.38;;;1.80;;
65092;SDS011;52025;50.288;2.794;2022-09-03T12:23:28;2.83;;;1.65;;
65092;SDS011;52025;50.288;2.794;2022-09-03T12:25:53;4.13;;;1.80;;
65092;SDS011;52025;50.288;2.794;2022-09-03T12:28:20;4.03;;;1.98;;
65092;SDS011;52025;50.288;2.794;2022-09-03T12:30:47;3.30;;;1.75;;
65092;SDS011;52025;50.288;2.794;2022-09-03T12:33:15;5.68;;;1.85;;
65092;SDS011;52025;50.288;2.794;2022-09-03T12:35:41;3.50;;;1.92;;
65092;SDS011;52025;50.288;2.794;2022-09-03T12:38:07;4.07;;;1.25;;
65092;SDS011;52025;50.288;2.794;2022-09-03T12:40:32;5.13;;;1.60;;
65092;SDS011;52025;50.288;2.794;2022-09-03T12:43:13;5.88;;;1.85;;
65092;SDS011;52025;50.288;2.794;2022-09-03T12:45:46;3.55;;;1.85;;
65092;SDS011;52025;50.288;2.794;2022-09-03T12:48:15;13.38;;;2.35;;
65092;SDS011;52025;50.288;2.794;2022-09-03T12:50:41;8.38;;;1.98;;
65092;SDS011;52025;50.288;2.794;2022-09-03T12:53:07;3.90;;;1.77;;
65092;SDS011;52025;50.288;2.794;2022-09-03T12:55:47;3.60;;;1.73;;
65092;SDS011;52025;50.288;2.794;2022-09-03T13:03:23;21.48;;;3.50;;
65092;SDS011;52025;50.288;2.794;2022-09-03T13:05:52;7.43;;;2.97;;
65092;SDS011;52025;50.288;2.794;2022-09-03T13:08:22;3.25;;;1.60;;
65092;SDS011;52025;50.288;2.794;2022-09-03T13:10:50;14.75;;;2.65;;
65092;SDS011;52025;50.288;2.794;2022-09-03T13:15:41;35.35;;;4.68;;
65092;SDS011;52025;50.288;2.794;2022-09-03T13:18:24;7.65;;;2.50;;
65092;SDS011;52025;50.288;2.794;2022-09-03T13:21:02;2.85;;;1.65;;
65092;SDS011;52025;50.288;2.794;2022-09-03T13:23:54;13.85;;;3.35;;
65092;SDS011;52025;50.288;2.794;2022-09-03T13:26:39;6.60;;;2.80;;
65092;SDS011;52025;50.288;2.794;2022-09-03T13:31:49;5.75;;;2.05;;
65092;SDS011;52025;50.288;2.794;2022-09-03T13:39:53;14.27;;;3.22;;
65092;SDS011;52025;50.288;2.794;2022-09-03T13:42:21;3.40;;;2.05;;
65092;SDS011;52025;50.288;2.794;2022-09-03T13:44:49;5.40;;;2.10;;
65092;SDS011;52025;50.288;2.794;2022-09-03T13:49:54;4.47;;;2.10;;
65092;SDS011;52025;50.288;2.794;2022-09-03T13:52:56;10.35;;;2.58;;
65092;SDS011;52025;50.288;2.794;2022-09-03T13:58:10;4.18;;;1.80;;
65092;SDS011;52025;50.288;2.794;2022-09-03T14:01:16;5.43;;;2.17;;
65092;SDS011;52025;50.288;2.794;2022-09-03T14:03:42;9.60;;;2.03;;
65092;SDS011;52025;50.288;2.794;2022-09-03T14:08:56;4.50;;;2.10;;
65092;SDS011;52025;50.288;2.794;2022-09-03T14:11:31;5.28;;;2.05;;
65092;SDS011;52025;50.288;2.794;2022-09-03T14:14:08;5.32;;;1.92;;
65092;SDS011;52025;50.288;2.794;2022-09-03T14:22:22;12.68;;;3.15;;
65092;SDS011;52025;50.288;2.794;2022-09-03T14:24:52;12.55;;;3.38;;
65092;SDS011;52025;50.288;2.794;2022-09-03T14:27:25;5.13;;;2.30;;
65092;SDS011;52025;50.288;2.794;2022-09-03T14:29:52;4.63;;;3.17;;
65092;SDS011;52025;50.288;2.794;2022-09-03T14:44:36;4.47;;;1.73;;
65092;SDS011;52025;50.288;2.794;2022-09-03T14:47:12;2.50;;;1.52;;
65092;SDS011;52025;50.288;2.794;2022-09-03T15:00:07;6.40;;;1.65;;
65092;SDS011;52025;50.288;2.794;2022-09-03T15:05:13;12.30;;;2.30;;
65092;SDS011;52025;50.288;2.794;2022-09-03T15:07:44;4.75;;;2.00;;
65092;SDS011;52025;50.288;2.794;2022-09-03T15:12:58;6.68;;;2.25;;
65092;SDS011;52025;50.288;2.794;2022-09-03T15:15:32;6.05;;;1.23;;
65092;SDS011;52025;50.288;2.794;2022-09-03T16:00:57;5.65;;;2.08;;
65092;SDS011;52025;50.288;2.794;2022-09-03T16:03:32;4.47;;;1.92;;
65092;SDS011;52025;50.288;2.794;2022-09-03T16:08:58;2.42;;;1.45;;
65092;SDS011;52025;50.288;2.794;2022-09-03T16:14:12;4.07;;;2.00;;
65092;SDS011;52025;50.288;2.794;2022-09-03T16:21:58;9.13;;;2.60;;
65092;SDS011;52025;50.288;2.794;2022-09-03T16:24:30;4.57;;;1.63;;
65092;SDS011;52025;50.288;2.794;2022-09-03T16:27:06;11.32;;;2.72;;
65092;SDS011;52025;50.288;2.794;2022-09-03T16:48:23;12.90;;;2.95;;
65092;SDS011;52025;50.288;2.794;2022-09-03T17:24:58;3.72;;;1.90;;
65092;SDS011;52025;50.288;2.794;2022-09-03T17:35:58;4.47;;;1.98;;
65092;SDS011;52025;50.288;2.794;2022-09-03T17:41:41;5.05;;;2.33;;
65092;SDS011;52025;50.288;2.794;2022-09-03T17:47:01;3.72;;;2.00;;
65092;SDS011;52025;50.288;2.794;2022-09-03T17:49:49;4.22;;;2.05;;
65092;SDS011;52025;50.288;2.794;2022-09-03T17:52:30;6.18;;;2.40;;
65092;SDS011;52025;50.288;2.794;2022-09-03T17:55:01;4.03;;;2.30;;
65092;SDS011;52025;50.288;2.794;2022-09-03T17:57:45;6.43;;;2.20;;
65092;SDS011;52025;50.288;2.794;2022-09-03T18:00:22;4.50;;;2.05;;
65092;SDS011;52025;50.288;2.794;2022-09-03T18:02:57;6.18;;;2.20;;
65092;SDS011;52025;50.288;2.794;2022-09-03T18:05:25;4.80;;;2.53;;
65092;SDS011;52025;50.288;2.794;2022-09-03T18:13:05;6.07;;;2.33;;
65092;SDS011;52025;50.288;2.794;2022-09-03T18:15:38;3.80;;;1.90;;
65092;SDS011;52025;50.288;2.794;2022-09-03T18:18:11;4.45;;;2.10;;
65092;SDS011;52025;50.288;2.794;2022-09-03T18:20:48;3.25;;;1.52;;
65092;SDS011;52025;50.288;2.794;2022-09-03T18:23:37;6.15;;;1.60;;
65092;SDS011;52025;50.288;2.794;2022-09-03T18:26:25;3.25;;;1.73;;
65092;SDS011;52025;50.288;2.794;2022-09-03T18:29:12;3.15;;;1.75;;
65092;SDS011;52025;50.288;2.794;2022-09-03T18:31:59;4.32;;;1.90;;
65092;SDS011;52025;50.288;2.794;2022-09-03T18:34:43;4.90;;;2.50;;
65092;SDS011;52025;50.288;2.794;2022-09-03T18:37:28;4.93;;;2.10;;
65092;SDS011;52025;50.288;2.794;2022-09-03T18:49:05;4.30;;;1.88;;
65092;SDS011;52025;50.288;2.794;2022-09-03T18:52:38;5.53;;;2.00;;
65092;SDS011;52025;50.288;2.794;2022-09-03T18:55:14;3.78;;;1.88;;
65092;SDS011;52025;50.288;2.794;2022-09-03T18:58:10;4.03;;;2.22;;
65092;SDS011;52025;50.288;2.794;2022-09-03T19:01:00;3.88;;;2.05;;
65092;SDS011;52025;50.288;2.794;2022-09-03T19:04:00;3.15;;;1.67;;
65092;SDS011;52025;50.288;2.794;2022-09-03T19:15:23;10.40;;;4.90;;
65092;SDS011;52025;50.288;2.794;2022-09-03T19:18:19;4.75;;;2.33;;
65092;SDS011;52025;50.288;2.794;2022-09-03T19:21:09;6.95;;;3.00;;
65092;SDS011;52025;50.288;2.794;2022-09-03T19:24:00;4.40;;;2.42;;
65092;SDS011;52025;50.288;2.794;2022-09-03T19:35:49;8.45;;;3.90;;
65092;SDS011;52025;50.288;2.794;2022-09-03T19:41:34;7.97;;;4.05;;
65092;SDS011;52025;50.288;2.794;2022-09-03T19:47:43;7.85;;;4.07;;
65092;SDS011;52025;50.288;2.794;2022-09-03T19:50:33;7.18;;;3.95;;
65092;SDS011;52025;50.288;2.794;2022-09-03T19:53:19;8.82;;;3.90;;
65092;SDS011;52025;50.288;2.794;2022-09-03T19:56:05;8.00;;;4.55;;
65092;SDS011;52025;50.288;2.794;2022-09-03T19:58:53;6.40;;;4.20;;
65092;SDS011;52025;50.288;2.794;2022-09-03T20:01:38;10.55;;;4.53;;
65092;SDS011;52025;50.288;2.794;2022-09-03T20:07:07;6.80;;;4.30;;
65092;SDS011;52025;50.288;2.794;2022-09-03T20:09:52;7.53;;;5.00;;
65092;SDS011;52025;50.288;2.794;2022-09-03T20:12:37;8.70;;;4.70;;
65092;SDS011;52025;50.288;2.794;2022-09-03T20:15:04;8.68;;;4.03;;
65092;SDS011;52025;50.288;2.794;2022-09-03T20:20:15;8.73;;;5.15;;
65092;SDS011;52025;50.288;2.794;2022-09-03T20:22:49;13.27;;;5.68;;
65092;SDS011;52025;50.288;2.794;2022-09-03T20:26:01;9.07;;;5.18;;
65092;SDS011;52025;50.288;2.794;2022-09-03T20:28:15;8.45;;;4.43;;
65092;SDS011;52025;50.288;2.794;2022-09-03T20:41:46;8.90;;;5.72;;
65092;SDS011;52025;50.288;2.794;2022-09-03T20:47:06;8.43;;;5.32;;
65092;SDS011;52025;50.288;2.794;2022-09-03T20:49:51;8.13;;;5.10;;
65092;SDS011;52025;50.288;2.794;2022-09-03T20:52:52;8.38;;;4.95;;
65092;SDS011;52025;50.288;2.794;2022-09-03T20:55:20;9.43;;;4.93;;
65092;SDS011;52025;50.288;2.794;2022-09-03T21:00:15;8.63;;;5.10;;
65092;SDS011;52025;50.288;2.794;2022-09-03T21:02:47;8.15;;;4.97;;
65092;SDS011;52025;50.288;2.794;2022-09-03T21:05:19;7.15;;;4.43;;
65092;SDS011;52025;50.288;2.794;2022-09-03T21:15:55;7.50;;;4.22;;
65092;SDS011;52025;50.288;2.794;2022-09-03T21:20:37;7.73;;;4.90;;
65092;SDS011;52025;50.288;2.794;2022-09-03T21:23:11;8.38;;;5.70;;
65092;SDS011;52025;50.288;2.794;2022-09-03T21:25:38;9.25;;;5.40;;
65092;SDS011;52025;50.288;2.794;2022-09-03T21:30:30;8.00;;;4.70;;
65092;SDS011;52025;50.288;2.794;2022-09-03T21:33:07;8.52;;;5.03;;
65092;SDS011;52025;50.288;2.794;2022-09-03T21:35:35;8.57;;;5.80;;
65092;SDS011;52025;50.288;2.794;2022-09-03T21:38:03;7.93;;;5.50;;
65092;SDS011;52025;50.288;2.794;2022-09-03T21:40:29;9.85;;;5.15;;
65092;SDS011;52025;50.288;2.794;2022-09-03T21:43:16;7.85;;;5.20;;
65092;SDS011;52025;50.288;2.794;2022-09-03T21:45:46;8.52;;;5.40;;
65092;SDS011;52025;50.288;2.794;2022-09-03T21:51:00;6.70;;;4.70;;
65092;SDS011;52025;50.288;2.794;2022-09-03T21:53:34;8.10;;;4.95;;
65092;SDS011;52025;50.288;2.794;2022-09-03T21:56:09;7.60;;;4.93;;
65092;SDS011;52025;50.288;2.794;2022-09-03T22:03:50;8.23;;;5.25;;
65092;SDS011;52025;50.288;2.794;2022-09-03T22:06:21;8.30;;;4.38;;
65092;SDS011;52025;50.288;2.794;2022-09-03T22:08:53;8.20;;;4.50;;
65092;SDS011;52025;50.288;2.794;2022-09-03T22:13:54;7.70;;;4.95;;
65092;SDS011;52025;50.288;2.794;2022-09-03T22:18:57;8.68;;;5.45;;
65092;SDS011;52025;50.288;2.794;2022-09-03T22:21:27;8.68;;;5.38;;
65092;SDS011;52025;50.288;2.794;2022-09-03T22:30:04;7.93;;;5.30;;
65092;SDS011;52025;50.288;2.794;2022-09-03T22:40:43;8.82;;;5.28;;
65092;SDS011;52025;50.288;2.794;2022-09-03T22:49:24;8.57;;;5.05;;
65092;SDS011;52025;50.288;2.794;2022-09-03T22:54:32;9.33;;;5.93;;
65092;SDS011;52025;50.288;2.794;2022-09-03T22:57:00;7.72;;;5.43;;
65092;SDS011;52025;50.288;2.794;2022-09-03T23:02:21;10.90;;;6.15;;
65092;SDS011;52025;50.288;2.794;2022-09-03T23:10:18;8.75;;;5.47;;
65092;SDS011;52025;50.288;2.794;2022-09-03T23:12:45;7.70;;;5.63;;
65092;SDS011;52025;50.288;2.794;2022-09-03T23:15:14;9.85;;;6.10;;
65092;SDS011;52025;50.288;2.794;2022-09-03T23:17:43;9.75;;;6.07;;
65092;SDS011;52025;50.288;2.794;2022-09-03T23:20:14;8.98;;;5.63;;
65092;SDS011;52025;50.288;2.794;2022-09-03T23:22:52;9.60;;;6.18;;
65092;SDS011;52025;50.288;2.794;2022-09-03T23:25:24;8.32;;;5.90;;
65092;SDS011;52025;50.288;2.794;2022-09-03T23:27:58;8.52;;;5.68;;
65092;SDS011;52025;50.288;2.794;2022-09-03T23:30:25;8.35;;;6.25;;
65092;SDS011;52025;50.288;2.794;2022-09-03T23:32:52;8.77;;;5.97;;
65092;SDS011;52025;50.288;2.794;2022-09-03T23:35:28;9.98;;;6.28;;
65092;SDS011;52025;50.288;2.794;2022-09-03T23:40:27;10.40;;;6.07;;
65092;SDS011;52025;50.288;2.794;2022-09-03T23:48:09;9.45;;;6.18;;
65092;SDS011;52025;50.288;2.794;2022-09-03T23:53:26;9.65;;;6.25;;
